Time;durP1;ratioP1;P1;durP2;ratioP2;P2;SDS_P1;SDS_P2;PMS_P1;PMS_P2;Temp;Humidity;BMP_temperature;BMP_pressure;BME280_temperature;BME280_humidity;BME280_pressure;Samples;Min_cycle;Max_cycle;Signal;HPM_P1;HPM_P2
2022/08/15 00:00:52;;;;;;;10.15;9.85;;;;;;;-141.02;100.00;86054.78;5116581;28;20200;-81
2022/08/15 00:03:22;;;;;;;10.10;9.80;;;;;;;-141.02;100.00;86008.13;5116571;28;20816;-81
2022/08/15 00:05:50;;;;;;;9.88;9.57;;;;;;;-141.02;100.00;86078.13;5116328;28;20228;-80
2022/08/15 00:08:18;;;;;;;9.73;9.43;;;;;;;-141.02;100.00;86066.44;5116510;28;20221;-82
2022/08/15 00:10:46;;;;;;;9.90;9.60;;;;;;;-141.02;100.00;86105.34;5116130;28;20197;-81
2022/08/15 00:13:15;;;;;;;9.93;9.63;;;;;;;-141.02;100.00;86363.94;5116471;28;20566;-82
2022/08/15 00:15:45;;;;;;;10.02;9.73;;;;;;;-141.02;100.00;86117.00;5116017;28;20197;-81
2022/08/15 00:18:15;;;;;;;10.00;9.70;;;;;;;-141.02;100.00;86097.56;5116524;28;20221;-81
2022/08/15 00:20:44;;;;;;;9.90;9.60;;;;;;;-141.02;100.00;86097.56;5115863;28;20253;-82
2022/08/15 00:23:13;;;;;;;9.65;9.35;;;;;;;-141.02;100.00;86140.34;5115913;28;20220;-81
2022/08/15 00:25:41;;;;;;;9.45;9.15;;;;;;;-141.02;100.00;86140.34;5115862;28;20224;-81
2022/08/15 00:28:09;;;;;;;8.88;8.57;;;;;;;-141.02;100.00;86249.22;5115809;28;20235;-80
2022/08/15 00:30:38;;;;;;;9.20;8.90;;;;;;;-141.02;100.00;86188.94;5116114;28;20220;-81
2022/08/15 00:33:08;;;;;;;9.40;9.10;;;;;;;-141.02;100.00;86264.78;5115688;28;20702;-81
2022/08/15 00:35:37;;;;;;;9.05;8.75;;;;;;;-141.02;100.00;86317.25;5115843;28;20193;-81
2022/08/15 00:38:05;;;;;;;8.90;8.60;;;;;;;-141.02;100.00;86315.31;5115480;28;20221;-82
2022/08/15 00:41:39;;;;;;;8.90;8.60;;;;;;;-141.02;100.00;86299.75;5115638;28;20254;-80
2022/08/15 00:43:21;;;;;;;8.88;8.60;;;;;;;-141.02;100.00;86330.88;5115207;28;20225;-80
2022/08/15 00:45:49;;;;;;;8.63;8.43;;;;;;;-141.02;100.00;86280.31;5115967;28;20332;-82
2022/08/15 00:51:04;;;;;;;9.45;9.15;;;;;;;-141.02;100.00;86323.09;5116186;28;20562;-82
2022/08/15 00:53:32;;;;;;;9.30;9.00;;;;;;;-141.02;100.00;86338.66;5115348;28;20647;-82
2022/08/15 00:56:00;;;;;;;9.30;9.00;;;;;;;-141.02;100.00;86381.44;5115292;28;20227;-81
2022/08/15 00:58:27;;;;;;;9.40;9.10;;;;;;;-141.02;100.00;86420.31;5115089;28;20220;-80
2022/08/15 01:00:55;;;;;;;9.30;9.00;;;;;;;-141.02;100.00;86465.03;5114513;28;20195;-82
2022/08/15 01:03:27;;;;;;;9.30;9.00;;;;;;;-141.02;100.00;86505.88;5115132;28;20193;-82
2022/08/15 01:05:56;;;;;;;9.38;9.07;;;;;;;-141.02;100.00;86525.31;5115221;28;20186;-81
2022/08/15 01:08:32;;;;;;;9.07;8.77;;;;;;;-141.02;100.00;86502.00;5115010;28;20620;-81
2022/08/15 01:11:05;;;;;;;8.63;8.43;;;;;;;-141.02;100.00;86583.66;5115059;28;20201;-81
2022/08/15 01:13:34;;;;;;;8.80;8.60;;;;;;;-141.02;100.00;86640.06;5114958;28;20189;-81
2022/08/15 01:16:01;;;;;;;8.50;8.30;;;;;;;-141.02;100.00;86642.00;5115075;28;20652;-81
2022/08/15 01:18:30;;;;;;;8.68;8.48;;;;;;;-141.02;100.00;86708.13;5114857;28;20234;-81
2022/08/15 01:21:03;;;;;;;8.52;8.32;;;;;;;-141.02;100.00;86692.56;5114895;28;20197;-81
2022/08/15 01:23:42;;;;;;;9.00;8.70;;;;;;;-141.02;100.00;86739.22;5114904;28;20185;-80
2022/08/15 01:26:14;;;;;;;8.90;8.60;;;;;;;-141.02;100.00;86700.34;5114944;28;20205;-81
2022/08/15 01:28:44;;;;;;;9.10;8.80;;;;;;;-141.02;100.00;86739.22;5115079;28;20276;-81
2022/08/15 01:31:16;;;;;;;8.70;8.50;;;;;;;-141.02;100.00;86723.66;5114769;28;20193;-81
2022/08/15 01:33:46;;;;;;;8.15;7.95;;;;;;;-141.02;100.00;86758.69;5115015;28;20182;-81
2022/08/15 01:36:14;;;;;;;8.25;8.05;;;;;;;-141.02;100.00;86739.22;5114568;28;20647;-80
2022/08/15 01:38:47;;;;;;;8.00;7.80;;;;;;;-141.02;100.00;86696.44;5114511;28;20231;-80
2022/08/15 01:41:23;;;;;;;8.05;7.85;;;;;;;-141.02;100.00;86645.88;5114439;28;20189;-81
2022/08/15 01:43:56;;;;;;;8.40;8.20;;;;;;;-141.02;100.00;86626.44;5114524;28;20614;-80
2022/08/15 01:46:29;;;;;;;8.70;8.50;;;;;;;-141.02;100.00;86610.88;5114429;28;20276;-82
2022/08/15 01:49:04;;;;;;;8.70;8.50;;;;;;;-141.02;100.00;86554.50;5114328;28;20195;-82
2022/08/15 01:51:31;;;;;;;8.90;8.60;;;;;;;-141.02;100.00;86540.88;5114237;28;20184;-81
2022/08/15 01:54:05;;;;;;;9.20;8.90;;;;;;;-141.02;100.00;86200.59;5114225;28;20276;-80
2022/08/15 01:56:36;;;;;;;9.25;8.95;;;;;;;-141.02;100.00;86527.28;5114667;28;20203;-81
2022/08/15 01:59:06;;;;;;;9.15;8.85;;;;;;;-141.02;100.00;86521.44;5114054;28;20212;-82
2022/08/15 02:01:43;;;;;;;9.00;8.70;;;;;;;-141.02;100.00;86494.22;5114266;28;20266;-81
2022/08/15 02:04:12;;;;;;;9.43;9.13;;;;;;;-141.02;100.00;86502.00;5114043;28;20276;-81
2022/08/15 02:06:41;;;;;;;9.52;9.23;;;;;;;-141.02;100.00;86428.09;5114046;28;20740;-81
2022/08/15 02:09:12;;;;;;;9.98;9.68;;;;;;;-141.02;100.00;86470.88;5114210;28;20200;-81
2022/08/15 02:11:42;;;;;;;9.80;9.50;;;;;;;-141.02;100.00;86463.09;5113464;28;20189;-81
2022/08/15 02:14:11;;;;;;;9.50;9.20;;;;;;;-141.02;100.00;86500.03;5113662;28;20569;-81
2022/08/15 02:16:40;;;;;;;9.48;9.18;;;;;;;-141.02;100.00;86478.66;5113990;28;20241;-81
2022/08/15 02:19:10;;;;;;;9.40;9.10;;;;;;;-141.02;100.00;86509.75;5113647;28;20749;-81
2022/08/15 02:21:38;;;;;;;9.50;9.20;;;;;;;-141.02;100.00;86517.53;5113598;28;20280;-81
2022/08/15 02:24:09;;;;;;;9.60;9.30;;;;;;;-141.02;100.00;86476.72;5113587;28;20200;-81
2022/08/15 02:26:37;;;;;;;9.55;9.25;;;;;;;-141.02;100.00;86529.22;5113576;28;20181;-81
2022/08/15 02:29:06;;;;;;;9.35;9.05;;;;;;;-141.02;100.00;86548.66;5095498;28;20688;-81
2022/08/15 02:31:34;;;;;;;9.68;9.38;;;;;;;-141.02;100.00;86544.78;5113397;28;20197;-81
2022/08/15 02:34:04;;;;;;;9.98;9.68;;;;;;;-141.02;100.00;86529.22;5113296;28;20200;-81
2022/08/15 02:36:34;;;;;;;9.60;9.30;;;;;;;-141.02;100.00;86560.31;5113343;28;20196;-80
2022/08/15 02:39:07;;;;;;;9.50;9.20;;;;;;;-141.02;100.00;86568.09;5113634;28;20281;-80
2022/08/15 02:41:37;;;;;;;8.50;8.30;;;;;;;-141.02;100.00;86605.06;5113431;28;20239;-81
2022/08/15 02:44:07;;;;;;;7.80;7.60;;;;;;;-141.02;100.00;86616.72;5113217;28;20194;-80
2022/08/15 02:46:37;;;;;;;7.50;7.30;;;;;;;-141.02;100.00;86607.00;5113177;28;20195;-80
2022/08/15 02:49:10;;;;;;;7.60;7.40;;;;;;;-141.02;100.00;86585.59;5113292;28;20196;-80
2022/08/15 02:51:39;;;;;;;7.60;7.40;;;;;;;-141.02;100.00;86556.44;5113259;28;20668;-80
2022/08/15 02:54:08;;;;;;;7.80;7.60;;;;;;;-141.02;100.00;86245.31;5113024;28;20552;-81
2022/08/15 02:56:37;;;;;;;8.15;7.95;;;;;;;-141.02;100.00;86515.59;5113365;28;20197;-81
2022/08/15 02:59:08;;;;;;;8.32;8.13;;;;;;;-141.02;100.00;86276.44;5113163;28;20591;-80
2022/08/15 03:01:38;;;;;;;8.40;8.20;;;;;;;-141.02;100.00;86459.22;5113624;28;20294;-80
2022/08/15 03:04:08;;;;;;;8.48;8.27;;;;;;;-141.02;100.00;86459.22;5112934;28;20213;-80
2022/08/15 03:06:37;;;;;;;8.60;8.40;;;;;;;-141.02;100.00;86445.59;5113082;28;20247;-82
2022/08/15 03:09:07;;;;;;;8.50;8.30;;;;;;;-141.02;100.00;86433.94;5113045;28;20189;-81
2022/08/15 03:11:38;;;;;;;8.88;8.57;;;;;;;-141.02;100.00;86451.44;5113327;28;20203;-81
2022/08/15 03:14:08;;;;;;;8.63;8.43;;;;;;;-141.02;100.00;86416.44;5112837;28;20288;-82
2022/08/15 03:16:36;;;;;;;8.85;8.55;;;;;;;-141.02;100.00;86420.31;5112603;28;20283;-80
2022/08/15 03:19:05;;;;;;;8.82;8.52;;;;;;;-141.02;100.00;86404.75;5113125;28;20228;-81
2022/08/15 03:21:32;;;;;;;8.68;8.48;;;;;;;-141.02;100.00;86408.66;5112933;28;20193;-82
2022/08/15 03:23:59;;;;;;;8.93;8.63;;;;;;;-141.02;100.00;86397.00;5112327;28;20196;-81
2022/08/15 03:26:27;;;;;;;8.90;8.60;;;;;;;-141.02;100.00;86400.88;5112636;28;20193;-78
2022/08/15 03:28:55;;;;;;;9.20;8.90;;;;;;;-141.02;100.00;86391.16;5112425;28;20559;-80
2022/08/15 03:31:25;;;;;;;8.50;8.30;;;;;;;-141.02;100.00;86365.88;5112772;28;20201;-81
2022/08/15 03:33:52;;;;;;;8.45;8.25;;;;;;;-141.02;100.00;86397.00;5112362;28;20193;-80
2022/08/15 03:36:22;;;;;;;8.60;8.40;;;;;;;-141.02;100.00;86369.75;5112446;28;20246;-80
2022/08/15 03:38:49;;;;;;;8.50;8.30;;;;;;;-141.02;100.00;86338.66;5112308;28;20225;-81
2022/08/15 03:41:17;;;;;;;8.55;8.35;;;;;;;-141.02;100.00;86350.31;5112663;28;20201;-81
2022/08/15 03:43:46;;;;;;;8.20;8.00;;;;;;;-141.02;100.00;86352.25;5112224;28;20228;-80
2022/08/15 03:46:17;;;;;;;8.40;8.20;;;;;;;-141.02;100.00;86373.66;5112542;28;20193;-81
2022/08/15 03:48:49;;;;;;;8.30;8.10;;;;;;;-141.02;100.00;86328.94;5112372;28;20195;-81
2022/08/15 03:51:18;;;;;;;7.95;7.75;;;;;;;-141.02;100.00;86358.09;5112327;28;20181;-81
2022/08/15 03:53:47;;;;;;;8.20;8.00;;;;;;;-141.02;100.00;86328.94;5112330;28;20199;-82
2022/08/15 03:56:18;;;;;;;8.32;8.13;;;;;;;-141.02;100.00;86309.50;5112228;28;20218;-82
2022/08/15 03:58:46;;;;;;;8.30;8.10;;;;;;;-141.02;100.00;86323.09;5112582;28;20545;-81
2022/08/15 04:01:17;;;;;;;8.40;8.20;;;;;;;-141.02;100.00;86311.44;5112184;28;20189;-81
2022/08/15 04:03:47;;;;;;;8.23;8.02;;;;;;;-141.02;100.00;86323.09;5112807;28;20185;-81
2022/08/15 04:06:18;;;;;;;8.20;8.00;;;;;;;-141.02;100.00;86288.09;5112164;28;20197;-81
2022/08/15 04:08:47;;;;;;;8.32;8.13;;;;;;;-141.02;100.00;86307.53;5112537;28;20192;-80
2022/08/15 04:11:16;;;;;;;8.10;7.90;;;;;;;-141.02;100.00;86293.94;5112104;28;20205;-80
2022/08/15 04:13:45;;;;;;;7.80;7.60;;;;;;;-141.02;100.00;86309.50;5112004;28;20651;-81
2022/08/15 04:16:14;;;;;;;7.93;7.72;;;;;;;-141.02;100.00;85965.34;5112055;28;20204;-82
2022/08/15 04:18:41;;;;;;;8.10;7.90;;;;;;;-141.02;100.00;86288.09;5111935;28;20228;-81
2022/08/15 04:21:12;;;;;;;8.10;7.90;;;;;;;-141.02;100.00;86288.09;5112029;28;20731;-80
2022/08/15 04:23:41;;;;;;;8.07;7.88;;;;;;;-141.02;100.00;86245.31;5111991;28;20671;-81
2022/08/15 04:26:09;;;;;;;8.10;7.90;;;;;;;-141.02;100.00;86227.81;5111922;28;20258;-82
2022/08/15 04:28:36;;;;;;;8.45;8.25;;;;;;;-141.02;100.00;86214.22;5111927;28;20229;-83
2022/08/15 04:31:06;;;;;;;8.90;8.60;;;;;;;-141.02;100.00;86198.66;5111877;28;20190;-81
2022/08/15 04:33:34;;;;;;;9.13;8.82;;;;;;;-141.02;100.00;86132.56;5112251;28;20259;-81
2022/08/15 04:36:04;;;;;;;9.32;9.02;;;;;;;-141.02;100.00;86101.44;5113914;28;20703;-81
2022/08/15 04:38:33;;;;;;;9.80;9.50;;;;;;;-141.02;100.00;86120.88;5116051;28;20655;-81
2022/08/15 04:41:03;;;;;;;10.93;10.52;;;;;;;-141.02;100.00;86035.34;5115539;28;20243;-81
2022/08/15 04:43:33;;;;;;;11.27;10.88;;;;;;;-141.02;100.00;86012.00;5115595;28;20248;-80
2022/08/15 04:46:01;;;;;;;11.80;11.40;;;;;;;-141.02;100.00;85973.13;5115521;28;20262;-80
2022/08/15 04:48:28;;;;;;;12.00;11.60;;;;;;;-141.02;100.00;85942.03;5115476;28;20208;-81
2022/08/15 04:50:58;;;;;;;12.15;11.75;;;;;;;-141.02;100.00;85903.13;5115793;28;20200;-81
2022/08/15 04:53:28;;;;;;;12.10;11.70;;;;;;;-141.02;100.00;85901.19;5115531;28;20193;-81
2022/08/15 04:55:58;;;;;;;11.82;11.43;;;;;;;-141.02;100.00;86029.50;5115442;28;20223;-81
2022/08/15 04:58:25;;;;;;;11.73;11.32;;;;;;;-141.02;100.00;85854.53;5115999;28;20248;-81
2022/08/15 05:00:58;;;;;;;12.05;11.65;;;;;;;-141.02;100.00;85393.81;5115175;28;20706;-80
2022/08/15 05:03:27;;;;;;;12.35;11.95;;;;;;;-141.02;100.00;85829.25;5115187;28;20193;-80
2022/08/15 05:05:59;;;;;;;12.70;12.30;;;;;;;-141.02;100.00;85821.47;5115164;28;20193;-81
2022/08/15 05:08:29;;;;;;;13.32;12.82;;;;;;;-141.02;100.00;85809.81;5115483;28;20213;-81
2022/08/15 05:11:00;;;;;;;13.55;13.05;;;;;;;-141.02;100.00;85786.50;5115101;28;20560;-80
2022/08/15 05:13:33;;;;;;;13.48;12.98;;;;;;;-141.02;100.00;85794.25;5115337;28;20186;-80
2022/08/15 05:16:00;;;;;;;13.20;12.70;;;;;;;-141.02;100.00;85755.38;5114994;28;20230;-80
2022/08/15 05:18:29;;;;;;;13.32;12.82;;;;;;;-141.02;100.00;85755.38;5114946;28;20193;-80
2022/08/15 05:20:57;;;;;;;13.82;13.32;;;;;;;-141.02;100.00;85456.00;5114750;28;20224;-80
2022/08/15 05:23:26;;;;;;;14.30;13.80;;;;;;;-141.02;100.00;85658.19;5114802;28;20234;-80
2022/08/15 05:25:55;;;;;;;14.20;13.70;;;;;;;-141.02;100.00;85675.66;5114700;28;20246;-80
2022/08/15 05:28:25;;;;;;;13.70;13.20;;;;;;;-141.02;100.00;85629.03;5114715;28;20198;-79
2022/08/15 05:30:55;;;;;;;14.40;13.90;;;;;;;-141.02;100.00;85665.97;5115345;28;20197;-80
2022/08/15 05:33:25;;;;;;;14.30;13.80;;;;;;;-141.02;100.00;85669.84;5115302;28;20193;-80
2022/08/15 05:35:57;;;;;;;12.88;12.48;;;;;;;-141.02;100.00;85650.41;5114717;28;20727;-81
2022/08/15 05:38:27;;;;;;;12.90;12.50;;;;;;;-141.02;100.00;85640.69;5114532;28;20639;-80
2022/08/15 05:41:14;;;;;;;12.80;12.40;;;;;;;-141.02;100.00;85566.81;5114369;28;20702;-80
2022/08/15 05:43:52;;;;;;;13.57;13.07;;;;;;;-141.02;100.00;85580.41;5114341;28;20235;-80
2022/08/15 05:46:25;;;;;;;13.85;13.35;;;;;;;-141.02;100.00;85584.31;5114156;28;20272;-80
2022/08/15 05:49:01;;;;;;;14.30;13.70;;;;;;;-141.02;100.00;85539.59;5114362;28;20192;-79
2022/08/15 05:51:36;;;;;;;14.80;14.20;;;;;;;-141.02;100.00;85570.69;5114329;28;20280;-81
2022/08/15 05:54:22;;;;;;;15.88;15.18;;;;;;;-141.02;100.00;85487.09;5114230;28;20189;-80
2022/08/15 05:56:58;;;;;;;14.40;13.80;;;;;;;-141.02;100.00;85506.53;5114207;28;20196;-80
2022/08/15 05:59:35;;;;;;;14.80;14.20;;;;;;;-141.02;100.00;85422.97;5114079;28;20266;-80
2022/08/15 06:02:14;;;;;;;15.80;15.20;;;;;;;-141.02;100.00;85422.97;5114393;28;20638;-80
2022/08/15 06:04:57;;;;;;;16.17;15.48;;;;;;;-141.02;100.00;85370.47;5114091;28;20196;-81
2022/08/15 06:07:27;;;;;;;15.60;15.00;;;;;;;-141.02;100.00;85391.84;5113929;28;20189;-80
2022/08/15 06:09:59;;;;;;;14.60;14.10;;;;;;;-141.02;100.00;85164.44;5113976;28;20196;-81
2022/08/15 06:12:33;;;;;;;15.57;14.98;;;;;;;-141.02;100.00;85378.25;5113894;28;20659;-81
2022/08/15 06:15:07;;;;;;;14.70;14.20;;;;;;;-141.02;100.00;85397.69;5113864;28;20184;-81
2022/08/15 06:17:41;;;;;;;14.43;13.93;;;;;;;-141.02;100.00;85312.16;5113746;28;20192;-80
2022/08/15 06:20:13;;;;;;;15.95;15.35;;;;;;;-141.02;100.00;85306.31;5113702;28;20245;-79
2022/08/15 06:22:58;;;;;;;16.25;15.65;;;;;;;-141.02;100.00;85267.44;5113660;28;20670;-80
2022/08/15 06:25:33;;;;;;;16.90;16.20;;;;;;;-141.02;100.00;85277.16;5113697;28;20193;-80
2022/08/15 06:28:24;;;;;;;17.65;16.95;;;;;;;-141.02;100.00;85222.75;5113598;28;20177;-80
2022/08/15 06:31:02;;;;;;;16.58;15.98;;;;;;;-141.02;100.00;85191.66;5113762;28;20194;-79
2022/08/15 06:33:40;;;;;;;16.30;15.70;;;;;;;-141.02;100.00;85156.66;5113494;28;20199;-79
2022/08/15 06:36:16;;;;;;;17.30;16.60;;;;;;;-141.02;100.00;85086.69;5113433;28;20211;-79
2022/08/15 06:38:50;;;;;;;18.60;17.45;;;;;;;-141.02;100.00;85041.97;5113632;28;20189;-79
2022/08/15 06:41:26;;;;;;;16.50;15.90;;;;;;;-141.02;100.00;85008.94;5113598;28;20234;-78
2022/08/15 06:43:54;;;;;;;16.08;15.48;;;;;;;-141.02;100.00;84966.19;5113416;28;20225;-79
2022/08/15 06:46:27;;;;;;;16.27;15.57;;;;;;;-141.02;100.00;84956.47;5113186;28;20204;-78
2022/08/15 06:48:55;;;;;;;16.13;15.52;;;;;;;-141.02;100.00;84495.84;5113493;28;20256;-80
2022/08/15 06:51:25;;;;;;;15.70;15.10;;;;;;;-141.02;100.00;84929.25;5113044;28;20567;-79
2022/08/15 06:53:55;;;;;;;14.48;13.98;;;;;;;-141.02;100.00;84962.28;5113609;28;20203;-78
2022/08/15 06:56:28;;;;;;;14.38;13.88;;;;;;;-141.02;100.00;84933.13;5112974;28;20234;-78
2022/08/15 06:59:02;;;;;;;16.10;15.40;;;;;;;-141.02;100.00;84954.50;5112410;28;20250;-78
2022/08/15 07:01:41;;;;;;;15.70;15.10;;;;;;;-141.02;100.00;84935.06;5112829;28;20216;-79
2022/08/15 07:04:17;;;;;;;15.20;14.60;;;;;;;-141.02;100.00;84872.88;5113247;28;20189;-80
2022/08/15 07:06:49;;;;;;;15.75;15.15;;;;;;;-141.02;100.00;84859.28;5112851;28;20250;-79
2022/08/15 07:09:32;;;;;;;15.82;15.23;;;;;;;-141.02;100.00;84845.66;5112827;28;20647;-79
2022/08/15 07:12:16;;;;;;;16.20;15.50;;;;;;;-141.02;100.00;84725.16;5112815;28;20639;-79
2022/08/15 07:14:53;;;;;;;16.08;15.32;;;;;;;-141.02;100.00;84771.81;5112706;28;20193;-78
2022/08/15 07:17:27;;;;;;;15.65;14.95;;;;;;;-141.02;100.00;84736.84;5112722;28;20188;-79
2022/08/15 07:19:54;;;;;;;16.58;15.77;;;;;;;-141.02;100.00;84713.50;5112574;28;20248;-78
2022/08/15 07:22:21;;;;;;;15.55;14.85;;;;;;;-141.02;100.00;84649.38;5112925;28;20193;-78
2022/08/15 07:24:52;;;;;;;16.15;15.35;;;;;;;-141.02;100.00;84569.69;5112808;28;20274;-78
2022/08/15 07:27:28;;;;;;;18.23;17.23;;;;;;;-141.02;100.00;84542.47;5112626;28;20698;-78
2022/08/15 07:30:02;;;;;;;16.30;15.50;;;;;;;-141.02;100.00;84480.31;5112537;28;20195;-79
2022/08/15 07:32:46;;;;;;;17.77;16.88;;;;;;;-141.02;100.00;84388.97;5112471;28;20284;-77
2022/08/15 07:35:21;;;;;;;17.40;16.50;;;;;;;-141.02;100.00;84375.34;5112513;28;20568;-77
2022/08/15 07:37:56;;;;;;;18.20;17.20;;;;;;;-141.02;100.00;84282.09;5112449;28;20189;-78
2022/08/15 07:40:26;;;;;;;17.73;16.73;;;;;;;-141.02;100.00;84225.72;5112654;28;20227;-79
2022/08/15 07:42:54;;;;;;;18.65;17.65;;;;;;;-141.02;100.00;84239.31;5112277;28;20235;-78
2022/08/15 07:45:30;;;;;;;17.60;16.70;;;;;;;-141.02;100.00;84138.28;5112376;28;20196;-77
2022/08/15 07:48:01;;;;;;;17.63;16.63;;;;;;;-141.02;100.00;84114.97;5112295;28;20189;-77
2022/08/15 07:50:38;;;;;;;17.48;16.48;;;;;;;-141.02;100.00;84068.31;5112648;28;20651;-80
2022/08/15 07:53:16;;;;;;;17.30;16.40;;;;;;;-141.02;100.00;83842.94;5112373;28;20195;-78
2022/08/15 07:56:04;;;;;;;17.25;16.35;;;;;;;-141.02;100.00;84062.50;5112628;28;20269;-78
2022/08/15 07:58:34;;;;;;;16.63;15.73;;;;;;;-141.02;100.00;84118.84;5112518;28;20185;-78
2022/08/15 08:01:11;;;;;;;17.27;16.23;;;;;;;-141.02;100.00;84072.22;5112130;28;20720;-77
2022/08/15 08:03:45;;;;;;;17.30;16.30;;;;;;;-141.02;100.00;83971.16;5112521;28;20264;-78
2022/08/15 08:06:22;;;;;;;17.20;16.20;;;;;;;-141.02;100.00;83951.75;5112211;28;20204;-80
2022/08/15 08:08:56;;;;;;;17.30;16.30;;;;;;;-141.02;100.00;83846.81;5112177;28;20191;-77
2022/08/15 08:11:36;;;;;;;17.33;16.33;;;;;;;-141.02;100.00;83839.03;5116501;28;20189;-80
2022/08/15 08:14:14;;;;;;;18.10;17.10;;;;;;;-141.02;99.30;83780.75;5116361;28;20658;-78
2022/08/15 08:16:49;;;;;;;17.48;16.48;;;;;;;-141.02;95.65;83739.97;5116176;28;20249;-78
2022/08/15 08:19:26;;;;;;;17.45;16.45;;;;;;;-141.02;98.96;83695.28;5116085;28;20185;-78
2022/08/15 08:22:03;;;;;;;18.50;17.40;;;;;;;-141.02;90.72;84363.69;5115946;28;20603;-78
2022/08/15 08:24:42;;;;;;;19.67;18.48;;;;;;;-141.02;93.81;83708.88;5116335;28;20216;-80
2022/08/15 08:27:20;;;;;;;17.52;16.52;;;;;;;-141.02;93.74;83683.59;5116020;28;20639;-77
2022/08/15 08:30:03;;;;;;;17.50;16.50;;;;;;;-141.02;90.60;83660.28;5115792;28;20255;-79
2022/08/15 08:32:40;;;;;;;17.33;16.33;;;;;;;-141.02;90.35;83619.50;5116186;28;20222;-77
2022/08/15 08:35:19;;;;;;;17.08;16.17;;;;;;;-141.02;89.99;83668.06;5115777;28;20238;-77
2022/08/15 08:37:55;;;;;;;17.13;16.23;;;;;;;-141.02;89.81;83528.19;5115729;28;20643;-77
2022/08/15 08:43:27;;;;;;;18.92;17.92;;;;;;;-141.02;84.22;83392.19;5115744;28;20256;-78
2022/08/15 08:46:04;;;;;;;18.38;17.38;;;;;;;-141.02;84.04;83458.25;5115512;28;20661;-78
2022/08/15 08:48:42;;;;;;;18.83;17.67;;;;;;;-141.02;81.36;83341.69;5115553;28;20616;-78
2022/08/15 08:51:21;;;;;;;19.23;18.23;;;;;;;-141.02;80.03;83207.63;5115434;28;20220;-78
2022/08/15 08:53:57;;;;;;;20.02;18.92;;;;;;;-141.02;76.74;83230.94;5116335;28;20271;-77
2022/08/15 08:56:30;;;;;;;19.98;18.88;;;;;;;-141.02;77.99;83283.41;5115499;28;20272;-77
2022/08/15 08:59:05;;;;;;;19.98;18.88;;;;;;;-141.02;76.75;83182.38;5113260;28;20730;-78
2022/08/15 09:01:34;;;;;;;21.85;20.58;;;;;;;-141.02;71.91;83096.91;5115261;28;20231;-78
2022/08/15 09:04:06;;;;;;;20.83;19.70;;;;;;;-141.02;73.14;82966.75;5115604;28;20620;-77
2022/08/15 09:06:39;;;;;;;21.63;20.42;;;;;;;-141.02;71.67;82935.66;5115623;28;20288;-77
2022/08/15 09:09:12;;;;;;;21.23;20.02;;;;;;;-141.02;77.32;83166.84;5115199;28;20189;-78
2022/08/15 09:11:43;;;;;;;20.70;19.60;;;;;;;-141.02;78.22;83203.75;5115391;28;20181;-77
2022/08/15 09:14:18;;;;;;;21.20;20.00;;;;;;;-141.02;76.37;83170.72;5115016;28;20280;-77
2022/08/15 09:16:47;;;;;;;21.13;20.02;;;;;;;-141.02;72.91;83405.78;5114951;28;20188;-77
2022/08/15 09:19:22;;;;;;;22.45;21.02;;;;;;;-141.02;70.96;82922.06;5114899;28;20200;-77
2022/08/15 09:21:52;;;;;;;21.02;19.92;;;;;;;-141.02;73.50;82927.91;5114199;28;20275;-77
2022/08/15 09:24:21;;;;;;;21.23;20.02;;;;;;;-141.02;70.25;82908.47;5114880;28;20674;-76
2022/08/15 09:26:59;;;;;;;20.77;19.58;;;;;;;-141.02;71.17;82929.84;5115068;28;20266;-77
2022/08/15 09:29:30;;;;;;;21.65;20.35;;;;;;;-141.02;67.68;82832.72;5114789;28;20276;-77
2022/08/15 09:32:18;;;;;;;21.13;19.92;;;;;;;-141.02;69.93;82881.28;5114912;28;20193;-78
2022/08/15 09:35:02;;;;;;;19.90;18.80;;;;;;;-141.02;70.86;82933.72;5114644;28;20193;-77
2022/08/15 09:38:02;;;;;;;20.52;19.33;;;;;;;-141.02;68.01;82778.34;5114951;28;20188;-75
2022/08/15 09:40:49;;;;;;;21.92;20.42;;;;;;;-141.02;64.53;82638.47;5101624;28;20197;-76
2022/08/15 09:43:35;;;;;;;20.73;19.42;;;;;;;-141.02;62.94;82500.56;5114307;28;20315;-77
2022/08/15 09:46:43;;;;;;;21.00;19.70;;;;;;;-141.02;62.45;82572.44;5114458;28;20185;-76
2022/08/15 09:49:30;;;;;;;21.00;19.70;;;;;;;-141.02;63.59;82529.72;5110875;28;20654;-76
2022/08/15 09:52:12;;;;;;;21.65;20.15;;;;;;;-141.02;62.82;82537.47;5114332;28;20197;-76
2022/08/15 09:54:49;;;;;;;21.17;19.77;;;;;;;-141.02;63.50;82545.25;5114288;28;20746;-77
2022/08/15 09:57:36;;;;;;;20.27;18.98;;;;;;;-141.02;61.66;82556.91;5114482;28;20189;-76
2022/08/15 10:00:19;;;;;;;20.23;18.92;;;;;;;-141.02;63.89;82630.72;5114214;28;20185;-75
2022/08/15 10:02:49;;;;;;;20.25;18.95;;;;;;;-141.02;65.24;82622.94;5114406;28;20193;-78
2022/08/15 10:05:29;;;;;;;20.45;19.15;;;;;;;-141.02;64.69;82535.53;5114236;28;20203;-76
2022/08/15 10:07:59;;;;;;;20.83;19.52;;;;;;;-141.02;62.42;82386.00;5114044;28;20181;-77
2022/08/15 10:10:54;;;;;;;19.92;18.63;;;;;;;-141.02;61.30;82405.41;5113881;28;20196;-78
2022/08/15 10:13:46;;;;;;;20.60;19.30;;;;;;;-141.02;63.49;82516.13;5113922;28;20181;-77
2022/08/15 10:16:47;;;;;;;20.70;19.40;;;;;;;-141.02;63.96;82475.31;5113899;28;20228;-76
2022/08/15 10:19:34;;;;;;;20.80;19.50;;;;;;;-141.02;62.21;82300.53;5113803;28;20226;-76
2022/08/15 10:22:24;;;;;;;20.38;19.08;;;;;;;-141.02;62.36;82463.69;5113896;28;20217;-77
2022/08/15 10:25:17;;;;;;;20.08;18.80;;;;;;;-141.02;63.37;82420.94;5113566;28;20711;-77
2022/08/15 10:27:59;;;;;;;20.83;19.48;;;;;;;-141.02;61.61;82327.72;5113601;28;20563;-75
2022/08/15 10:30:30;;;;;;;21.25;19.85;;;;;;;-141.02;60.01;82236.44;5113616;28;20200;-77
2022/08/15 10:33:00;;;;;;;20.90;19.50;;;;;;;-141.02;59.08;82213.13;5112815;28;20664;-75
2022/08/15 10:35:33;;;;;;;20.45;19.15;;;;;;;-141.02;58.61;82166.53;5113367;28;20200;-77
2022/08/15 10:38:02;;;;;;;20.67;19.27;;;;;;;-141.02;56.46;82110.22;5113403;28;20243;-76
2022/08/15 10:40:46;;;;;;;20.08;18.77;;;;;;;-141.02;57.54;82055.84;5113271;28;20197;-75
2022/08/15 10:43:30;;;;;;;21.30;19.80;;;;;;;-141.02;56.88;81982.03;5113240;28;20240;-77
2022/08/15 10:46:06;;;;;;;21.05;19.60;;;;;;;-141.02;57.68;82050.00;5113220;28;20189;-76
2022/08/15 10:48:49;;;;;;;20.42;19.02;;;;;;;-141.02;54.42;81943.19;5113565;28;20614;-75
2022/08/15 10:51:25;;;;;;;20.98;19.48;;;;;;;-141.02;54.96;81902.41;5113094;28;20185;-75
2022/08/15 10:54:04;;;;;;;21.83;20.33;;;;;;;-141.02;56.56;82038.34;5113123;28;20272;-79
2022/08/15 10:56:42;;;;;;;19.60;18.20;;;;;;;-141.02;56.21;81702.41;5113094;28;20273;-74
2022/08/15 10:59:16;;;;;;;20.33;18.92;;;;;;;-141.02;55.42;81964.56;5112989;28;20193;-80
2022/08/15 11:01:44;;;;;;;20.98;19.52;;;;;;;-141.02;56.27;82024.75;5112926;28;20213;-76
2022/08/15 11:04:23;;;;;;;19.83;18.52;;;;;;;-141.02;56.59;81972.31;5113185;28;20223;-78
2022/08/15 11:06:50;;;;;;;20.13;18.75;;;;;;;-141.02;56.20;81917.94;5113377;28;20561;-79
2022/08/15 11:09:20;;;;;;;19.42;18.13;;;;;;;-141.02;55.47;81879.13;5112837;28;20197;-76
2022/08/15 11:11:53;;;;;;;19.90;18.50;;;;;;;-141.02;54.68;81877.19;5112836;28;20659;-79
2022/08/15 11:14:27;;;;;;;20.38;18.98;;;;;;;-141.02;54.42;81958.72;5112741;28;20184;-75
2022/08/15 11:16:56;;;;;;;20.25;18.85;;;;;;;-141.02;55.20;81578.13;5113383;28;20316;-75
2022/08/15 11:19:29;;;;;;;21.40;19.90;;;;;;;-141.02;55.44;81877.19;5112757;28;20192;-75
2022/08/15 11:21:58;;;;;;;20.75;19.25;;;;;;;-141.02;55.83;81906.31;5112621;28;20221;-77
2022/08/15 11:24:30;;;;;;;21.02;19.42;;;;;;;-141.02;54.76;81861.63;5112656;28;20720;-77
2022/08/15 11:27:12;;;;;;;20.50;19.00;;;;;;;-141.02;54.56;81869.41;5112656;28;20193;-73
2022/08/15 11:29:43;;;;;;;20.50;19.00;;;;;;;-141.02;53.91;81737.34;5112715;28;20189;-77
2022/08/15 11:32:13;;;;;;;20.00;18.60;;;;;;;-141.02;52.22;81762.59;5112886;28;20267;-75
2022/08/15 11:34:46;;;;;;;20.05;18.55;;;;;;;-141.02;51.63;81716.00;5112414;28;20189;-75